sensor_id;sensor_type;location;lat;lon;timestamp;pressure;altitude;pressure_sealevel;temperature;humidity
43161;BME280;40968;52.342;5.528;2023-02-15T00:00:52;102919.75;;;4.85;69.58
43161;BME280;40968;52.342;5.528;2023-02-15T00:03:20;102975.16;;;5.11;68.96
43161;BME280;40968;52.342;5.528;2023-02-15T00:05:48;102933.06;;;4.83;68.53
43161;BME280;40968;52.342;5.528;2023-02-15T00:08:15;102910.31;;;4.65;69.14
43161;BME280;40968;52.342;5.528;2023-02-15T00:10:41;102898.94;;;4.60;68.62
43161;BME280;40968;52.342;5.528;2023-02-15T00:13:08;102807.81;;;4.00;68.40
43161;BME280;40968;52.342;5.528;2023-02-15T00:15:34;102964.91;;;4.86;68.10
43161;BME280;40968;52.342;5.528;2023-02-15T00:18:01;102897.38;;;4.45;68.60
43161;BME280;40968;52.342;5.528;2023-02-15T00:20:27;102868.41;;;4.29;69.77
43161;BME280;40968;52.342;5.528;2023-02-15T00:22:55;102915.72;;;4.60;70.45
43161;BME280;40968;52.342;5.528;2023-02-15T00:25:22;102908.81;;;4.50;69.32
43161;BME280;40968;52.342;5.528;2023-02-15T00:27:49;102890.53;;;4.30;69.32
43161;BME280;40968;52.342;5.528;2023-02-15T00:30:16;102957.19;;;4.71;68.56
43161;BME280;40968;52.342;5.528;2023-02-15T00:32:42;102925.59;;;4.51;68.83
43161;BME280;40968;52.342;5.528;2023-02-15T00:35:09;102904.63;;;4.35;68.90
43161;BME280;40968;52.342;5.528;2023-02-15T00:37:36;102939.69;;;4.57;69.81
43161;BME280;40968;52.342;5.528;2023-02-15T00:40:05;102907.28;;;4.34;70.19
43161;BME280;40968;52.342;5.528;2023-02-15T00:42:32;102845.94;;;3.94;70.91
43161;BME280;40968;52.342;5.528;2023-02-15T00:44:58;102882.72;;;4.19;70.10
43161;BME280;40968;52.342;5.528;2023-02-15T00:47:25;102769.53;;;3.57;72.44
43161;BME280;40968;52.342;5.528;2023-02-15T00:49:52;102931.72;;;4.57;70.76
43161;BME280;40968;52.342;5.528;2023-02-15T00:52:18;102923.78;;;4.54;71.29
43161;BME280;40968;52.342;5.528;2023-02-15T00:54:45;102923.88;;;4.48;70.99
43161;BME280;40968;52.342;5.528;2023-02-15T00:57:13;102900.25;;;4.32;70.29
43161;BME280;40968;52.342;5.528;2023-02-15T00:59:39;102862.63;;;4.03;70.13
43161;BME280;40968;52.342;5.528;2023-02-15T01:02:06;102924.00;;;4.39;70.91
43161;BME280;40968;52.342;5.528;2023-02-15T01:04:33;102853.94;;;3.91;71.24
43161;BME280;40968;52.342;5.528;2023-02-15T01:06:59;102926.72;;;4.36;70.41
43161;BME280;40968;52.342;5.528;2023-02-15T01:09:27;102927.69;;;4.31;70.47
43161;BME280;40968;52.342;5.528;2023-02-15T01:11:53;102853.97;;;3.90;71.30
43161;BME280;40968;52.342;5.528;2023-02-15T01:14:22;102899.63;;;4.13;70.85
43161;BME280;40968;52.342;5.528;2023-02-15T01:16:49;102818.97;;;3.63;70.69
43161;BME280;40968;52.342;5.528;2023-02-15T01:19:16;102917.22;;;4.19;70.38
43161;BME280;40968;52.342;5.528;2023-02-15T01:21:42;102927.06;;;4.14;69.75
43161;BME280;40968;52.342;5.528;2023-02-15T01:24:11;102914.69;;;4.10;71.19
43161;BME280;40968;52.342;5.528;2023-02-15T01:26:39;102912.97;;;4.09;71.12
43161;BME280;40968;52.342;5.528;2023-02-15T01:29:05;102748.97;;;3.09;70.90
43161;BME280;40968;52.342;5.528;2023-02-15T01:31:33;102862.91;;;3.81;73.00
43161;BME280;40968;52.342;5.528;2023-02-15T01:34:00;102903.25;;;4.05;72.71
43161;BME280;40968;52.342;5.528;2023-02-15T01:36:26;102900.69;;;4.00;71.63
43161;BME280;40968;52.342;5.528;2023-02-15T01:38:53;102853.31;;;3.74;71.54
43161;BME280;40968;52.342;5.528;2023-02-15T01:41:20;102765.56;;;3.22;70.91
43161;BME280;40968;52.342;5.528;2023-02-15T01:43:50;102884.94;;;3.89;71.96
43161;BME280;40968;52.342;5.528;2023-02-15T01:46:19;102733.16;;;3.03;71.54
43161;BME280;40968;52.342;5.528;2023-02-15T01:48:50;102881.41;;;3.87;71.48
43161;BME280;40968;52.342;5.528;2023-02-15T01:51:21;102885.88;;;3.84;71.42
43161;BME280;40968;52.342;5.528;2023-02-15T01:53:52;102867.44;;;3.73;72.44
43161;BME280;40968;52.342;5.528;2023-02-15T01:56:22;102878.00;;;3.79;71.58
43161;BME280;40968;52.342;5.528;2023-02-15T01:58:51;102800.81;;;3.32;71.55
43161;BME280;40968;52.342;5.528;2023-02-15T02:01:21;102871.88;;;3.74;71.65
43161;BME280;40968;52.342;5.528;2023-02-15T02:03:57;102830.81;;;3.32;72.43
43161;BME280;40968;52.342;5.528;2023-02-15T02:06:26;102878.06;;;3.73;73.20
43161;BME280;40968;52.342;5.528;2023-02-15T02:08:53;102812.28;;;3.34;72.95
43161;BME280;40968;52.342;5.528;2023-02-15T02:11:20;102777.13;;;3.17;72.50
43161;BME280;40968;52.342;5.528;2023-02-15T02:13:47;102797.28;;;3.31;73.22
43161;BME280;40968;52.342;5.528;2023-02-15T02:16:20;102541.38;;;1.76;71.33
43161;BME280;40968;52.342;5.528;2023-02-15T02:19:04;102803.53;;;3.24;71.68
43161;BME280;40968;52.342;5.528;2023-02-15T02:24:52;102785.09;;;3.15;71.82
43161;BME280;40968;52.342;5.528;2023-02-15T02:27:30;102809.69;;;3.28;72.79
43161;BME280;40968;52.342;5.528;2023-02-15T02:30:37;102815.84;;;3.31;73.97
43161;BME280;40968;52.342;5.528;2023-02-15T02:33:32;102802.59;;;3.31;73.65
43161;BME280;40968;52.342;5.528;2023-02-15T02:36:08;102805.22;;;3.33;73.55
43161;BME280;40968;52.342;5.528;2023-02-15T02:38:48;102835.06;;;3.49;74.25
43161;BME280;40968;52.342;5.528;2023-02-15T02:41:25;102671.00;;;2.57;75.50
43161;BME280;40968;52.342;5.528;2023-02-15T02:44:03;102791.19;;;3.23;73.90
43161;BME280;40968;52.342;5.528;2023-02-15T02:46:34;102839.41;;;3.53;73.84
43161;BME280;40968;52.342;5.528;2023-02-15T02:49:03;102784.22;;;3.16;73.47
43161;BME280;40968;52.342;5.528;2023-02-15T02:51:30;102802.59;;;3.31;74.82
43161;BME280;40968;52.342;5.528;2023-02-15T02:53:59;102742.03;;;2.96;74.61
43161;BME280;40968;52.342;5.528;2023-02-15T02:56:29;102754.25;;;3.08;74.63
43161;BME280;40968;52.342;5.528;2023-02-15T02:58:59;102827.06;;;3.51;74.93
43161;BME280;40968;52.342;5.528;2023-02-15T03:01:31;102754.22;;;3.12;75.41
43161;BME280;40968;52.342;5.528;2023-02-15T03:04:01;102822.66;;;3.51;75.58
43161;BME280;40968;52.342;5.528;2023-02-15T03:06:33;102812.06;;;3.49;75.25
43161;BME280;40968;52.342;5.528;2023-02-15T03:09:06;102656.00;;;2.56;76.11
43161;BME280;40968;52.342;5.528;2023-02-15T03:11:41;102771.75;;;3.24;75.83
43161;BME280;40968;52.342;5.528;2023-02-15T03:14:08;102767.34;;;3.23;75.97
43161;BME280;40968;52.342;5.528;2023-02-15T03:16:34;102616.59;;;2.31;75.09
43161;BME280;40968;52.342;5.528;2023-02-15T03:19:04;102592.03;;;2.20;74.26
43161;BME280;40968;52.342;5.528;2023-02-15T03:21:36;102756.91;;;3.08;75.20
43161;BME280;40968;52.342;5.528;2023-02-15T03:24:08;102751.66;;;3.05;76.07
43161;BME280;40968;52.342;5.528;2023-02-15T03:26:38;102725.41;;;2.86;76.96
43161;BME280;40968;52.342;5.528;2023-02-15T03:29:06;102752.53;;;3.07;77.12
43161;BME280;40968;52.342;5.528;2023-02-15T03:31:38;102792.91;;;3.29;77.44
43161;BME280;40968;52.342;5.528;2023-02-15T03:34:08;102697.22;;;2.79;77.38
43161;BME280;40968;52.342;5.528;2023-02-15T03:36:43;102759.44;;;3.20;77.88
43161;BME280;40968;52.342;5.528;2023-02-15T03:39:17;102783.16;;;3.29;77.70
43161;BME280;40968;52.342;5.528;2023-02-15T03:41:49;102683.16;;;2.74;77.99
43161;BME280;40968;52.342;5.528;2023-02-15T03:44:23;102781.38;;;3.31;77.83
43161;BME280;40968;52.342;5.528;2023-02-15T03:46:58;102778.72;;;3.31;78.27
43161;BME280;40968;52.342;5.528;2023-02-15T03:49:29;102631.44;;;2.45;78.22
43161;BME280;40968;52.342;5.528;2023-02-15T03:52:02;102734.91;;;3.04;78.39
43161;BME280;40968;52.342;5.528;2023-02-15T03:54:31;102674.44;;;2.65;78.23
43161;BME280;40968;52.342;5.528;2023-02-15T03:57:11;102706.91;;;2.81;78.24
43161;BME280;40968;52.342;5.528;2023-02-15T03:59:57;102755.28;;;2.99;78.40
43161;BME280;40968;52.342;5.528;2023-02-15T04:02:50;102748.19;;;3.03;78.78
43161;BME280;40968;52.342;5.528;2023-02-15T04:05:22;102730.63;;;2.91;78.60
43161;BME280;40968;52.342;5.528;2023-02-15T04:07:49;102601.72;;;2.23;78.71
43161;BME280;40968;52.342;5.528;2023-02-15T04:10:16;102395.91;;;1.02;78.48
43161;BME280;40968;52.342;5.528;2023-02-15T04:13:01;102759.47;;;3.17;78.81
43161;BME280;40968;52.342;5.528;2023-02-15T04:15:27;102736.59;;;3.10;78.77
43161;BME280;40968;52.342;5.528;2023-02-15T04:18:11;102547.22;;;2.06;79.19
43161;BME280;40968;52.342;5.528;2023-02-15T04:20:38;102605.09;;;2.37;79.14
43161;BME280;40968;52.342;5.528;2023-02-15T04:23:23;102754.94;;;3.25;78.85
43161;BME280;40968;52.342;5.528;2023-02-15T04:26:07;102720.84;;;2.96;78.46
43161;BME280;40968;52.342;5.528;2023-02-15T04:28:34;102635.94;;;2.37;78.40
43161;BME280;40968;52.342;5.528;2023-02-15T04:31:00;102733.22;;;2.95;78.28
43161;BME280;40968;52.342;5.528;2023-02-15T04:33:27;102693.75;;;2.75;78.73
43161;BME280;40968;52.342;5.528;2023-02-15T04:35:54;102685.00;;;2.69;78.39
43161;BME280;40968;52.342;5.528;2023-02-15T04:38:23;102708.69;;;2.81;78.76
43161;BME280;40968;52.342;5.528;2023-02-15T04:40:50;102592.13;;;2.11;79.00
43161;BME280;40968;52.342;5.528;2023-02-15T04:43:17;102660.47;;;2.51;79.12
43161;BME280;40968;52.342;5.528;2023-02-15T04:45:48;102741.19;;;2.95;79.15
43161;BME280;40968;52.342;5.528;2023-02-15T04:48:15;102702.63;;;2.71;79.22
43161;BME280;40968;52.342;5.528;2023-02-15T04:50:42;102670.13;;;2.57;79.58
43161;BME280;40968;52.342;5.528;2023-02-15T04:53:09;102730.66;;;2.89;79.50
43161;BME280;40968;52.342;5.528;2023-02-15T04:55:37;102574.66;;;1.96;79.50
43161;BME280;40968;52.342;5.528;2023-02-15T04:58:04;102556.28;;;1.80;79.80
43161;BME280;40968;52.342;5.528;2023-02-15T05:00:30;102668.50;;;2.43;80.04
43161;BME280;40968;52.342;5.528;2023-02-15T05:02:57;102739.59;;;2.79;79.85
43161;BME280;40968;52.342;5.528;2023-02-15T05:05:23;102574.78;;;1.85;80.00
43161;BME280;40968;52.342;5.528;2023-02-15T05:07:50;102743.13;;;2.81;80.10
43161;BME280;40968;52.342;5.528;2023-02-15T05:10:17;102695.78;;;2.53;80.16
43161;BME280;40968;52.342;5.528;2023-02-15T05:12:45;102735.19;;;2.79;80.29
43161;BME280;40968;52.342;5.528;2023-02-15T05:15:11;102744.03;;;2.78;80.29
43161;BME280;40968;52.342;5.528;2023-02-15T05:17:38;102742.28;;;2.76;80.15
43161;BME280;40968;52.342;5.528;2023-02-15T05:20:06;102558.13;;;1.74;80.32
43161;BME280;40968;52.342;5.528;2023-02-15T05:22:32;102701.94;;;2.54;79.90
43161;BME280;40968;52.342;5.528;2023-02-15T05:24:59;102530.16;;;1.48;80.23
43161;BME280;40968;52.342;5.528;2023-02-15T05:27:44;102683.56;;;2.40;80.57
43161;BME280;40968;52.342;5.528;2023-02-15T05:30:29;102663.47;;;2.22;80.33
43161;BME280;40968;52.342;5.528;2023-02-15T05:32:55;102730.09;;;2.62;80.53
43161;BME280;40968;52.342;5.528;2023-02-15T05:35:22;102731.84;;;2.62;80.84
43161;BME280;40968;52.342;5.528;2023-02-15T05:37:48;102702.88;;;2.48;80.79
43161;BME280;40968;52.342;5.528;2023-02-15T05:40:15;102563.53;;;1.63;80.54
43161;BME280;40968;52.342;5.528;2023-02-15T05:42:42;102724.81;;;2.58;80.43
43161;BME280;40968;52.342;5.528;2023-02-15T05:45:10;102725.72;;;2.58;81.08
43161;BME280;40968;52.342;5.528;2023-02-15T05:47:36;102684.59;;;2.25;80.49
43161;BME280;40968;52.342;5.528;2023-02-15T05:50:03;102549.50;;;1.53;80.66
43161;BME280;40968;52.342;5.528;2023-02-15T05:52:30;102662.59;;;2.18;80.84
43161;BME280;40968;52.342;5.528;2023-02-15T05:54:57;102729.28;;;2.56;80.77
43161;BME280;40968;52.342;5.528;2023-02-15T05:57:25;102548.66;;;1.51;80.45
43161;BME280;40968;52.342;5.528;2023-02-15T05:59:51;102726.63;;;2.53;80.64
43161;BME280;40968;52.342;5.528;2023-02-15T06:02:19;102726.66;;;2.51;80.65
43161;BME280;40968;52.342;5.528;2023-02-15T06:04:46;102720.53;;;2.49;80.62
43161;BME280;40968;52.342;5.528;2023-02-15T06:07:13;102723.16;;;2.49;80.78
43161;BME280;40968;52.342;5.528;2023-02-15T06:09:39;102581.16;;;1.64;80.57
43161;BME280;40968;52.342;5.528;2023-02-15T06:12:06;102724.06;;;2.45;80.73
43161;BME280;40968;52.342;5.528;2023-02-15T06:14:32;102670.63;;;2.09;80.52
43161;BME280;40968;52.342;5.528;2023-02-15T06:16:59;102575.03;;;1.54;80.39
43161;BME280;40968;52.342;5.528;2023-02-15T06:19:27;102644.28;;;1.99;80.45
43161;BME280;40968;52.342;5.528;2023-02-15T06:21:53;102707.44;;;2.34;80.76
43161;BME280;40968;52.342;5.528;2023-02-15T06:24:20;102633.84;;;1.82;80.85
43161;BME280;40968;52.342;5.528;2023-02-15T06:26:47;102663.66;;;2.03;81.00
43161;BME280;40968;52.342;5.528;2023-02-15T06:29:13;102697.00;;;2.17;81.54
43161;BME280;40968;52.342;5.528;2023-02-15T06:31:40;102612.78;;;1.73;81.26
43161;BME280;40968;52.342;5.528;2023-02-15T06:34:07;102709.31;;;2.21;81.25
43161;BME280;40968;52.342;5.528;2023-02-15T06:36:35;102588.31;;;1.49;81.12
43161;BME280;40968;52.342;5.528;2023-02-15T06:39:02;102710.22;;;2.18;81.54
43161;BME280;40968;52.342;5.528;2023-02-15T06:41:29;102703.16;;;2.17;81.43
43161;BME280;40968;52.342;5.528;2023-02-15T06:43:56;102640.94;;;1.77;81.50
43161;BME280;40968;52.342;5.528;2023-02-15T06:46:22;102587.47;;;1.46;81.47
43161;BME280;40968;52.342;5.528;2023-02-15T06:48:49;102715.53;;;2.13;81.15
43161;BME280;40968;52.342;5.528;2023-02-15T06:51:16;102668.16;;;1.87;81.27
43161;BME280;40968;52.342;5.528;2023-02-15T06:53:44;102719.09;;;2.14;81.46
43161;BME280;40968;52.342;5.528;2023-02-15T06:56:11;102718.19;;;2.13;81.51
43161;BME280;40968;52.342;5.528;2023-02-15T06:58:39;102664.66;;;1.87;81.62
43161;BME280;40968;52.342;5.528;2023-02-15T07:01:07;102704.09;;;2.13;81.36
43161;BME280;40968;52.342;5.528;2023-02-15T07:03:35;102710.28;;;2.12;81.66
43161;BME280;40968;52.342;5.528;2023-02-15T07:06:03;102662.88;;;1.90;81.48
43161;BME280;40968;52.342;5.528;2023-02-15T07:08:31;102694.47;;;2.06;81.71
43161;BME280;40968;52.342;5.528;2023-02-15T07:10:59;102678.69;;;1.93;81.90
43161;BME280;40968;52.342;5.528;2023-02-15T07:13:39;102712.91;;;2.12;81.75
43161;BME280;40968;52.342;5.528;2023-02-15T07:16:08;102661.16;;;1.86;81.87
43161;BME280;40968;52.342;5.528;2023-02-15T07:18:35;102706.75;;;2.11;81.65
43161;BME280;40968;52.342;5.528;2023-02-15T07:21:01;102487.56;;;0.81;81.46
43161;BME280;40968;52.342;5.528;2023-02-15T07:23:28;102698.81;;;2.11;81.73
43161;BME280;40968;52.342;5.528;2023-02-15T07:25:56;102703.22;;;2.11;81.98
43161;BME280;40968;52.342;5.528;2023-02-15T07:28:25;102618.19;;;1.59;81.53
43161;BME280;40968;52.342;5.528;2023-02-15T07:30:52;102661.97;;;1.91;81.57
43161;BME280;40968;52.342;5.528;2023-02-15T07:33:19;102698.78;;;2.14;81.60
43161;BME280;40968;52.342;5.528;2023-02-15T07:35:54;102644.38;;;1.86;81.55
43161;BME280;40968;52.342;5.528;2023-02-15T07:38:22;102651.41;;;1.91;81.67
43161;BME280;40968;52.342;5.528;2023-02-15T07:40:49;102690.00;;;2.12;81.78
43161;BME280;40968;52.342;5.528;2023-02-15T07:43:16;102673.31;;;2.03;81.57
43161;BME280;40968;52.342;5.528;2023-02-15T07:45:44;102682.06;;;2.11;81.63
43161;BME280;40968;52.342;5.528;2023-02-15T07:48:10;102639.03;;;1.93;81.77
43161;BME280;40968;52.342;5.528;2023-02-15T07:50:37;102634.75;;;1.80;81.66
43161;BME280;40968;52.342;5.528;2023-02-15T07:53:04;102623.22;;;1.87;81.97
43161;BME280;40968;52.342;5.528;2023-02-15T07:55:30;102457.59;;;0.94;81.84
43161;BME280;40968;52.342;5.528;2023-02-15T07:57:57;102403.22;;;0.65;81.59
43161;BME280;40968;52.342;5.528;2023-02-15T08:00:24;102621.41;;;1.95;81.61
43161;BME280;40968;52.342;5.528;2023-02-15T08:02:54;102660.84;;;2.20;81.98
43161;BME280;40968;52.342;5.528;2023-02-15T08:05:35;102594.16;;;1.86;82.00
43161;BME280;40968;52.342;5.528;2023-02-15T08:08:01;102648.50;;;2.16;81.89
43161;BME280;40968;52.342;5.528;2023-02-15T08:10:28;102442.59;;;0.95;81.74
43161;BME280;40968;52.342;5.528;2023-02-15T08:13:08;102363.78;;;0.48;81.35
43161;BME280;40968;52.342;5.528;2023-02-15T08:15:35;102667.75;;;2.30;81.84
43161;BME280;40968;52.342;5.528;2023-02-15T08:18:03;102661.56;;;2.31;81.92
43161;BME280;40968;52.342;5.528;2023-02-15T08:20:29;102658.91;;;2.33;81.94
43161;BME280;40968;52.342;5.528;2023-02-15T08:22:56;102500.25;;;1.46;81.52
43161;BME280;40968;52.342;5.528;2023-02-15T08:25:23;102582.56;;;1.97;81.50
43161;BME280;40968;52.342;5.528;2023-02-15T08:27:49;102638.63;;;2.34;81.82
43161;BME280;40968;52.342;5.528;2023-02-15T08:30:16;102562.38;;;1.90;81.37
43161;BME280;40968;52.342;5.528;2023-02-15T08:32:42;102587.75;;;2.10;81.56
43161;BME280;40968;52.342;5.528;2023-02-15T08:35:11;102646.41;;;2.49;81.44
43161;BME280;40968;52.342;5.528;2023-02-15T08:37:37;102583.28;;;2.15;81.31
43161;BME280;40968;52.342;5.528;2023-02-15T08:40:04;102641.94;;;2.54;81.54
43161;BME280;40968;52.342;5.528;2023-02-15T08:42:32;102635.72;;;2.58;81.61
43161;BME280;40968;52.342;5.528;2023-02-15T08:44:59;102632.13;;;2.62;81.57
43161;BME280;40968;52.342;5.528;2023-02-15T08:47:26;102633.84;;;2.67;81.47
43161;BME280;40968;52.342;5.528;2023-02-15T08:49:52;102586.41;;;2.48;81.67
43161;BME280;40968;52.342;5.528;2023-02-15T08:52:20;102558.31;;;2.38;81.30
43161;BME280;40968;52.342;5.528;2023-02-15T08:54:47;102559.16;;;2.41;81.44
43161;BME280;40968;52.342;5.528;2023-02-15T08:57:13;102558.19;;;2.47;81.42
43161;BME280;40968;52.342;5.528;2023-02-15T08:59:40;102580.88;;;2.67;81.47
43161;BME280;40968;52.342;5.528;2023-02-15T09:02:09;102398.75;;;1.62;81.21
43161;BME280;40968;52.342;5.528;2023-02-15T09:04:36;102539.63;;;2.52;81.11
43161;BME280;40968;52.342;5.528;2023-02-15T09:07:03;102586.91;;;2.78;81.14
43161;BME280;40968;52.342;5.528;2023-02-15T09:09:31;102590.28;;;2.89;81.07
43161;BME280;40968;52.342;5.528;2023-02-15T09:11:58;102577.94;;;2.87;81.12
43161;BME280;40968;52.342;5.528;2023-02-15T09:14:25;102626.09;;;3.17;81.07
43161;BME280;40968;52.342;5.528;2023-02-15T09:16:52;102601.41;;;3.13;81.08
43161;BME280;40968;52.342;5.528;2023-02-15T09:19:21;102632.03;;;3.34;80.71
43161;BME280;40968;52.342;5.528;2023-02-15T09:21:48;102462.91;;;2.47;80.68
43161;BME280;40968;52.342;5.528;2023-02-15T09:24:16;102615.00;;;3.49;80.43
43161;BME280;40968;52.342;5.528;2023-02-15T09:26:45;102509.88;;;2.93;79.96
43161;BME280;40968;52.342;5.528;2023-02-15T09:29:14;102607.75;;;3.60;79.92
43161;BME280;40968;52.342;5.528;2023-02-15T09:31:43;102577.94;;;3.44;79.93
43161;BME280;40968;52.342;5.528;2023-02-15T09:34:11;102552.63;;;3.28;79.62
43161;BME280;40968;52.342;5.528;2023-02-15T09:36:39;102610.91;;;3.81;79.38
43161;BME280;40968;52.342;5.528;2023-02-15T09:39:08;102580.19;;;3.69;79.32
43161;BME280;40968;52.342;5.528;2023-02-15T09:42:03;102617.66;;;4.01;79.80
43161;BME280;40968;52.342;5.528;2023-02-15T09:44:53;102620.13;;;4.10;79.73
43161;BME280;40968;52.342;5.528;2023-02-15T09:47:48;102617.25;;;4.22;79.52
43161;BME280;40968;52.342;5.528;2023-02-15T09:50:23;102604.72;;;4.30;79.29
43161;BME280;40968;52.342;5.528;2023-02-15T09:53:10;102517.22;;;3.80;78.95
43161;BME280;40968;52.342;5.528;2023-02-15T09:55:48;102532.81;;;3.97;78.68
43161;BME280;40968;52.342;5.528;2023-02-15T09:58:25;102477.66;;;3.70;78.43
43161;BME280;40968;52.342;5.528;2023-02-15T10:00:59;102611.13;;;4.64;78.38
43161;BME280;40968;52.342;5.528;2023-02-15T10:03:40;102608.28;;;4.73;77.87
43161;BME280;40968;52.342;5.528;2023-02-15T10:06:22;102606.31;;;4.81;77.68
43161;BME280;40968;52.342;5.528;2023-02-15T10:11:52;102583.38;;;4.77;76.71
43161;BME280;40968;52.342;5.528;2023-02-15T10:14:33;102511.63;;;4.38;76.48
43161;BME280;40968;52.342;5.528;2023-02-15T10:17:16;102550.78;;;4.71;75.99
43161;BME280;40968;52.342;5.528;2023-02-15T10:19:58;102618.75;;;5.20;75.99
43161;BME280;40968;52.342;5.528;2023-02-15T10:22:37;102532.91;;;4.77;75.66
43161;BME280;40968;52.342;5.528;2023-02-15T10:25:14;102633.28;;;5.43;75.19
43161;BME280;40968;52.342;5.528;2023-02-15T10:27:45;102415.59;;;4.19;74.32
43161;BME280;40968;52.342;5.528;2023-02-15T10:30:16;102633.81;;;5.57;73.94
43161;BME280;40968;52.342;5.528;2023-02-15T10:32:54;102486.72;;;4.83;73.68
43161;BME280;40968;52.342;5.528;2023-02-15T10:35:26;102627.22;;;5.74;73.14
43161;BME280;40968;52.342;5.528;2023-02-15T10:38:05;102617.28;;;5.79;72.88
43161;BME280;40968;52.342;5.528;2023-02-15T10:40:43;102440.81;;;4.78;72.97
43161;BME280;40968;52.342;5.528;2023-02-15T10:43:32;102531.47;;;5.38;72.18
43161;BME280;40968;52.342;5.528;2023-02-15T10:46:10;102629.03;;;6.08;71.69
43161;BME280;40968;52.342;5.528;2023-02-15T10:49:06;102578.06;;;5.87;71.33
43161;BME280;40968;52.342;5.528;2023-02-15T10:51:41;102509.66;;;5.59;70.99
43161;BME280;40968;52.342;5.528;2023-02-15T10:54:21;102617.50;;;6.39;71.21
43161;BME280;40968;52.342;5.528;2023-02-15T10:56:57;102585.72;;;6.33;70.64
43161;BME280;40968;52.342;5.528;2023-02-15T10:59:37;102609.56;;;6.69;70.40
43161;BME280;40968;52.342;5.528;2023-02-15T11:02:16;102574.06;;;6.67;70.35
43161;BME280;40968;52.342;5.528;2023-02-15T11:04:50;102608.63;;;7.00;70.40
43161;BME280;40968;52.342;5.528;2023-02-15T11:07:22;102574.06;;;6.96;69.56
43161;BME280;40968;52.342;5.528;2023-02-15T11:09:54;102492.50;;;6.62;68.85
43161;BME280;40968;52.342;5.528;2023-02-15T11:12:24;102443.00;;;6.55;68.58
43161;BME280;40968;52.342;5.528;2023-02-15T11:14:57;102481.72;;;6.94;68.07
43161;BME280;40968;52.342;5.528;2023-02-15T11:17:33;102509.88;;;7.29;66.93
43161;BME280;40968;52.342;5.528;2023-02-15T11:20:09;102491.00;;;7.36;67.47
43161;BME280;40968;52.342;5.528;2023-02-15T11:22:41;102511.50;;;7.60;66.58
43161;BME280;40968;52.342;5.528;2023-02-15T11:25:17;102520.59;;;7.80;66.45
43161;BME280;40968;52.342;5.528;2023-02-15T11:27:46;102541.13;;;8.03;66.15
43161;BME280;40968;52.342;5.528;2023-02-15T11:30:19;102577.44;;;8.33;66.19
43161;BME280;40968;52.342;5.528;2023-02-15T11:32:49;102578.97;;;8.40;66.10
43161;BME280;40968;52.342;5.528;2023-02-15T11:35:20;102552.47;;;8.34;65.71
43161;BME280;40968;52.342;5.528;2023-02-15T11:37:51;102530.22;;;8.33;65.65
43161;BME280;40968;52.342;5.528;2023-02-15T11:40:20;102548.00;;;8.59;65.25
43161;BME280;40968;52.342;5.528;2023-02-15T11:42:51;102502.41;;;8.39;64.93
43161;BME280;40968;52.342;5.528;2023-02-15T11:45:22;102398.59;;;7.84;64.31
43161;BME280;40968;52.342;5.528;2023-02-15T11:47:53;102521.34;;;8.56;63.91
43161;BME280;40968;52.342;5.528;2023-02-15T11:50:22;102513.25;;;8.59;64.29
43161;BME280;40968;52.342;5.528;2023-02-15T11:52:52;102538.19;;;8.82;63.60
43161;BME280;40968;52.342;5.528;2023-02-15T11:55:23;102487.44;;;8.58;63.17
43161;BME280;40968;52.342;5.528;2023-02-15T11:57:53;102529.56;;;8.98;63.19
43161;BME280;40968;52.342;5.528;2023-02-15T12:00:24;102520.25;;;9.06;63.43
43161;BME280;40968;52.342;5.528;2023-02-15T12:02:58;102208.84;;;7.44;62.79
43161;BME280;40968;52.342;5.528;2023-02-15T12:05:25;102507.81;;;9.27;62.89
43161;BME280;40968;52.342;5.528;2023-02-15T12:07:54;102356.94;;;8.48;62.77
43161;BME280;40968;52.342;5.528;2023-02-15T12:10:24;102457.44;;;9.17;62.30
43161;BME280;40968;52.342;5.528;2023-02-15T12:13:09;102460.31;;;9.33;61.81
43161;BME280;40968;52.342;5.528;2023-02-15T12:15:37;102364.41;;;8.82;61.28
43161;BME280;40968;52.342;5.528;2023-02-15T12:18:18;102471.03;;;9.53;60.75
43161;BME280;40968;52.342;5.528;2023-02-15T12:20:45;102495.09;;;9.74;60.19
43161;BME280;40968;52.342;5.528;2023-02-15T12:23:14;102487.75;;;9.79;59.26
43161;BME280;40968;52.342;5.528;2023-02-15T12:25:42;102482.13;;;9.85;59.25
43161;BME280;40968;52.342;5.528;2023-02-15T12:28:22;102487.06;;;9.94;58.69
43161;BME280;40968;52.342;5.528;2023-02-15T12:30:51;102488.66;;;9.99;58.98
43161;BME280;40968;52.342;5.528;2023-02-15T12:33:26;102489.25;;;10.05;59.20
43161;BME280;40968;52.342;5.528;2023-02-15T12:35:57;102487.97;;;10.14;59.47
43161;BME280;40968;52.342;5.528;2023-02-15T12:38:25;102435.34;;;9.92;58.84
43161;BME280;40968;52.342;5.528;2023-02-15T12:40:58;102382.94;;;9.68;58.05
43161;BME280;40968;52.342;5.528;2023-02-15T12:43:26;102421.31;;;9.87;57.49
43161;BME280;40968;52.342;5.528;2023-02-15T12:46:13;102474.78;;;10.28;58.22
43161;BME280;40968;52.342;5.528;2023-02-15T12:48:41;102417.13;;;10.01;58.17
43161;BME280;40968;52.342;5.528;2023-02-15T12:51:09;102446.16;;;10.29;57.68
43161;BME280;40968;52.342;5.528;2023-02-15T12:53:40;102340.84;;;9.90;57.75
43161;BME280;40968;52.342;5.528;2023-02-15T12:56:09;102419.88;;;10.56;58.12
43161;BME280;40968;52.342;5.528;2023-02-15T12:58:37;102453.16;;;10.89;57.14
43161;BME280;40968;52.342;5.528;2023-02-15T13:01:11;102396.09;;;10.68;56.44
43161;BME280;40968;52.342;5.528;2023-02-15T13:03:57;102454.50;;;11.15;56.45
43161;BME280;40968;52.342;5.528;2023-02-15T13:06:25;102444.88;;;11.28;56.07
43161;BME280;40968;52.342;5.528;2023-02-15T13:08:54;102376.28;;;11.05;56.18
43161;BME280;40968;52.342;5.528;2023-02-15T13:11:25;102439.25;;;11.51;55.79
43161;BME280;40968;52.342;5.528;2023-02-15T13:13:55;102444.38;;;11.55;55.49
43161;BME280;40968;52.342;5.528;2023-02-15T13:16:27;102433.56;;;11.57;54.94
43161;BME280;40968;52.342;5.528;2023-02-15T13:18:58;102274.63;;;10.66;55.36
43161;BME280;40968;52.342;5.528;2023-02-15T13:21:32;102270.38;;;10.61;54.98
43161;BME280;40968;52.342;5.528;2023-02-15T13:24:05;102431.38;;;11.48;54.69